الصفحة الرئيسية
METAR-TAF:

METAR-TAF

مطار :

مطار جواندا الدولي

Gerbangkertosusila, إندونيسيا

دائرة عرض: 07-22-47S, خط طول: 112-47-13E, ارتفاع: 3 متر

METAR: مفقودة

زمن: 17:57 (10:57 UTC)

توقعات

تاريخ ووقت الإصدار 5ساعات و 57 دقيقة قبل الساعة 05:00UTC
التوقعات صالحة من29 الساعة 06 UTC إلى 30 الساعة 06 UTC
ريح 13 عقدة من الشرق
الرؤية 10 كم أو أكثر
غيوم قليلة على ارتفاع 2000 قدم
أصبح
من 29 الساعة 16 UTC إلى 29 الساعة 18 UTC
ريح 5 عقدة من الجنوب الغربي
الرؤية: 5000 متر
العجاج
أصبح
من 30 الساعة 00 UTC إلى 30 الساعة 02 UTC
ريح 10 عقدة من الشرق
الرؤية 10 كم أو أكثر

TAF: WARR 290500Z 2906/3006 09013KT 9999 FEW020 BECMG 2916/2918 23005KT 5000 HZ BECMG 3000/3002 10010KT 9999 NSW

أرصاد الطقس والتوقعات من أكثر من 4000 مطار (تقارير الطقس للمطار METAR والتنبؤ بالطقس بالمطارTAF).

المحطات المتاحة هي النقط الصفراء والحمراء على الخريطة.

حرك المؤشر فوق النقطة لمعرفة اسم المحطة.

ثم انقر لمعرفة أرصاد وتوقعات الطقس.

لتغيير الخارطة: اضغط على الأزرار الخضراء مع رمز الصليب الأسود للتكبير. على الزر الأخضر مع شرطة للتصغير، أو على الأسهم الخضراء للخرائط المجاورة.


METAR-TAF: